createdAt,value
2023-04-30T00:03:57.504Z,102258.53
2023-04-30T00:09:03.432Z,102262.63
2023-04-30T00:14:07.510Z,102253.91
2023-04-30T00:19:11.588Z,102269.69
2023-04-30T00:24:16.932Z,102267.00
2023-04-30T00:29:21.069Z,102269.41
2023-04-30T00:34:25.080Z,102274.69
2023-04-30T00:39:30.391Z,102266.16
2023-04-30T00:44:34.440Z,102274.91
2023-04-30T00:49:38.603Z,102271.66
2023-04-30T00:54:43.985Z,102267.47
2023-04-30T00:59:48.197Z,102272.88
2023-04-30T01:04:53.178Z,102261.13
2023-04-30T01:09:59.997Z,102263.06
2023-04-30T01:15:15.258Z,102260.22
2023-04-30T01:20:21.057Z,102255.22
2023-04-30T01:26:01.254Z,102267.56
2023-04-30T01:31:14.810Z,102260.81
2023-04-30T01:36:34.445Z,102267.84
2023-04-30T01:41:52.400Z,102280.94
2023-04-30T01:47:06.563Z,102261.84
2023-04-30T01:52:20.731Z,102269.81
2023-04-30T01:57:31.837Z,102266.56
2023-04-30T02:02:37.264Z,102268.56
2023-04-30T02:07:44.014Z,102274.78
2023-04-30T02:12:48.038Z,102271.66
2023-04-30T02:17:53.495Z,102273.50
2023-04-30T02:22:57.862Z,102275.47
2023-04-30T02:28:02.049Z,102267.22
2023-04-30T02:33:07.541Z,102276.94
2023-04-30T02:38:11.583Z,102273.63
2023-04-30T02:43:15.638Z,102272.84
2023-04-30T02:48:21.102Z,102275.66
2023-04-30T02:53:25.300Z,102268.97
2023-04-30T02:58:29.349Z,102273.59
2023-04-30T03:03:34.824Z,102280.19
2023-04-30T03:08:38.889Z,102271.56
2023-04-30T03:13:44.516Z,102277.78
2023-04-30T03:18:51.385Z,102274.44
2023-04-30T03:23:55.376Z,102275.38
2023-04-30T03:29:01.096Z,102265.91
2023-04-30T03:34:06.469Z,102268.69
2023-04-30T03:39:11.477Z,102262.75
2023-04-30T03:44:16.213Z,102276.69
2023-04-30T03:49:21.667Z,102270.91
2023-04-30T03:54:25.746Z,102283.13
2023-04-30T03:59:29.793Z,102274.81
2023-04-30T04:04:35.480Z,102281.81
2023-04-30T04:09:39.506Z,102289.78
2023-04-30T04:14:44.389Z,102289.97
2023-04-30T04:19:49.726Z,102290.06
2023-04-30T04:24:55.666Z,102292.56
2023-04-30T04:30:00.875Z,102299.56
2023-04-30T04:35:08.076Z,102292.72
2023-04-30T04:40:13.666Z,102300.50
2023-04-30T04:45:19.390Z,102305.69
2023-04-30T04:50:25.408Z,102294.59
2023-04-30T04:55:29.491Z,102298.84
2023-04-30T05:00:33.921Z,102290.31
2023-04-30T05:05:39.449Z,102293.00
2023-04-30T05:10:43.474Z,102289.66
2023-04-30T05:15:48.249Z,102296.50
2023-04-30T05:20:53.665Z,102292.19
2023-04-30T05:25:57.678Z,102298.84
2023-04-30T05:31:01.673Z,102297.91
2023-04-30T05:36:07.749Z,102309.03
2023-04-30T05:41:13.690Z,102306.44
2023-04-30T05:46:17.673Z,102296.81
2023-04-30T05:51:23.145Z,102309.63
2023-04-30T05:56:27.551Z,102302.66
2023-04-30T06:01:31.630Z,102305.81
2023-04-30T06:06:37.292Z,102318.59
2023-04-30T06:11:42.484Z,102301.13
2023-04-30T06:16:47.027Z,102294.63
2023-04-30T06:21:52.354Z,102296.84
2023-04-30T06:26:56.317Z,102294.66
2023-04-30T06:32:00.300Z,102306.31
2023-04-30T06:37:05.735Z,102305.78
2023-04-30T06:42:09.722Z,102301.25
2023-04-30T06:47:13.727Z,102301.13
2023-04-30T06:52:19.032Z,102302.22
2023-04-30T06:57:23.199Z,102301.69
2023-04-30T07:02:27.687Z,102314.84
2023-04-30T07:07:33.777Z,102307.22
2023-04-30T07:12:37.774Z,102305.44
2023-04-30T07:17:42.143Z,102292.47
2023-04-30T07:22:47.619Z,102282.97
2023-04-30T07:27:54.850Z,102289.78
2023-04-30T07:32:58.907Z,102285.25
2023-04-30T07:38:04.945Z,102272.19
2023-04-30T07:43:09.020Z,102277.19
2023-04-30T07:48:13.010Z,102275.75
2023-04-30T07:53:18.777Z,102284.88
2023-04-30T07:58:22.804Z,102283.13
2023-04-30T08:03:26.970Z,102289.66
2023-04-30T08:08:32.408Z,102286.72
2023-04-30T08:13:36.476Z,102280.22
2023-04-30T08:18:44.016Z,102282.47
2023-04-30T08:23:50.022Z,102286.59
2023-04-30T08:28:54.288Z,102280.72
2023-04-30T08:33:58.281Z,102274.13
2023-04-30T08:39:03.870Z,102268.88
2023-04-30T08:44:08.645Z,102278.56
2023-04-30T08:49:12.781Z,102272.44
2023-04-30T08:54:19.985Z,102263.06
2023-04-30T08:59:23.944Z,102261.50
2023-04-30T09:04:28.841Z,102254.25
2023-04-30T09:09:40.165Z,102243.69
2023-04-30T09:15:00.508Z,102243.66
2023-04-30T09:20:12.860Z,102246.47
2023-04-30T09:25:18.347Z,102227.78
2023-04-30T09:30:33.800Z,102216.72
2023-04-30T09:35:41.820Z,102202.47
2023-04-30T09:40:47.466Z,102190.09
2023-04-30T09:45:52.262Z,102184.63
2023-04-30T09:50:56.508Z,102167.16
2023-04-30T09:56:08.720Z,102164.47
2023-04-30T10:01:13.191Z,102160.22
2023-04-30T10:06:19.438Z,102145.69
2023-04-30T10:11:29.901Z,102141.03
2023-04-30T10:16:42.050Z,102136.19
2023-04-30T10:21:48.587Z,102121.13
2023-04-30T10:26:54.137Z,102121.22
2023-04-30T10:31:59.342Z,102118.09
2023-04-30T10:37:10.741Z,102118.75
2023-04-30T10:42:16.281Z,102099.78
2023-04-30T10:47:21.320Z,102102.56
2023-04-30T10:52:30.406Z,102091.38
2023-04-30T10:57:43.811Z,102083.44
2023-04-30T11:02:50.080Z,102068.44
2023-04-30T11:07:59.342Z,102058.94
2023-04-30T11:13:10.318Z,102055.88
2023-04-30T11:18:15.232Z,102043.06
2023-04-30T11:23:32.277Z,102043.28
2023-04-30T11:28:54.794Z,102042.97
2023-04-30T11:34:00.756Z,102030.31
2023-04-30T11:39:06.331Z,102029.25
2023-04-30T11:44:27.446Z,102022.25
2023-04-30T11:49:31.690Z,102015.59
2023-04-30T11:54:37.677Z,102011.53
2023-04-30T11:59:43.752Z,101997.88
2023-04-30T12:04:48.587Z,102005.13
2023-04-30T12:09:56.577Z,101995.88
2023-04-30T12:15:13.779Z,101999.16
2023-04-30T12:20:18.737Z,101993.16
2023-04-30T12:25:24.622Z,101987.84
2023-04-30T12:30:30.738Z,101991.34
2023-04-30T12:35:35.167Z,101979.03
2023-04-30T12:40:40.818Z,101989.28
2023-04-30T12:45:51.219Z,101979.06
2023-04-30T12:50:56.945Z,101977.56
2023-04-30T12:56:16.413Z,101967.56
2023-04-30T13:01:25.362Z,101966.75
2023-04-30T13:06:29.540Z,101959.97
2023-04-30T13:11:33.607Z,101943.81
2023-04-30T13:16:40.252Z,101954.75
2023-04-30T13:21:44.523Z,101938.59
2023-04-30T13:26:49.651Z,101945.16
2023-04-30T13:31:55.073Z,101937.44
2023-04-30T13:36:59.615Z,101941.59
2023-04-30T13:42:04.548Z,101928.03
2023-04-30T13:47:11.013Z,101931.03
2023-04-30T13:52:14.828Z,101925.97
2023-04-30T13:57:18.850Z,101932.22
2023-04-30T14:02:24.209Z,101916.25
2023-04-30T14:07:28.335Z,101920.06
2023-04-30T14:12:32.351Z,101920.28
2023-04-30T14:17:37.917Z,101916.28
2023-04-30T14:22:42.015Z,101923.84
2023-04-30T14:27:46.006Z,101910.13
2023-04-30T14:32:51.432Z,101909.59
2023-04-30T14:37:55.555Z,101913.28
2023-04-30T14:42:59.739Z,101910.38
2023-04-30T14:48:05.870Z,101903.81
2023-04-30T14:58:15.324Z,101899.69
2023-04-30T15:03:21.244Z,101898.94
2023-04-30T15:08:25.344Z,101886.22
2023-04-30T15:13:29.456Z,101883.06
2023-04-30T15:18:35.916Z,101865.06
2023-04-30T15:23:40.085Z,101872.81
2023-04-30T15:28:44.333Z,101881.47
2023-04-30T15:33:49.794Z,101865.25
2023-04-30T15:38:53.787Z,101858.78
2023-04-30T15:43:57.804Z,101856.16
2023-04-30T15:49:03.396Z,101848.72
2023-04-30T15:54:07.555Z,101849.19
2023-04-30T15:59:17.443Z,101848.22
2023-04-30T16:04:23.816Z,101844.97
2023-04-30T16:09:27.969Z,101837.25
2023-04-30T16:14:32.152Z,101839.84
2023-04-30T16:19:37.900Z,101841.19
2023-04-30T16:24:42.957Z,101828.88
2023-04-30T16:29:46.942Z,101834.50
2023-04-30T16:34:52.522Z,101842.28
2023-04-30T16:39:57.094Z,101828.00
2023-04-30T16:45:01.549Z,101828.22
2023-04-30T16:50:09.213Z,101823.72
2023-04-30T16:55:13.341Z,101832.16
2023-04-30T17:00:18.725Z,101826.88
2023-04-30T17:05:24.257Z,101818.34
2023-04-30T17:10:30.062Z,101824.59
2023-04-30T17:15:34.471Z,101808.13
2023-04-30T17:20:39.929Z,101808.13
2023-04-30T17:25:44.049Z,101813.19
2023-04-30T17:30:48.226Z,101796.56
2023-04-30T17:35:53.621Z,101806.13
2023-04-30T17:40:58.094Z,101799.00
2023-04-30T17:46:02.932Z,101803.59
2023-04-30T17:51:09.179Z,101796.66
2023-04-30T17:56:13.852Z,101791.03
2023-04-30T18:01:17.882Z,101792.66
2023-04-30T18:06:23.493Z,101796.13
2023-04-30T18:11:27.659Z,101786.50
2023-04-30T18:16:32.351Z,101771.66
2023-04-30T18:21:37.784Z,101786.06
2023-04-30T18:26:41.916Z,101788.22
2023-04-30T18:31:45.990Z,101788.00
2023-04-30T18:36:51.419Z,101785.66
2023-04-30T18:41:55.435Z,101776.75
2023-04-30T18:46:59.472Z,101777.34
2023-04-30T18:52:04.885Z,101777.63
2023-04-30T18:57:12.273Z,101786.69
2023-04-30T19:02:16.550Z,101771.84
2023-04-30T19:07:22.192Z,101776.38
2023-04-30T19:12:26.189Z,101782.41
2023-04-30T19:17:30.376Z,101793.97
2023-04-30T19:22:36.408Z,101790.44
2023-04-30T19:27:40.401Z,101788.56
2023-04-30T19:32:44.449Z,101799.00
2023-04-30T19:37:49.834Z,101797.25
2023-04-30T19:42:54.929Z,101797.84
2023-04-30T19:47:59.091Z,101801.19
2023-04-30T19:53:04.592Z,101800.97
2023-04-30T19:58:08.970Z,101800.88
2023-04-30T20:03:14.765Z,101791.13
2023-04-30T20:08:20.824Z,101798.59
2023-04-30T20:13:25.354Z,101792.28
2023-04-30T20:18:29.407Z,101794.00
2023-04-30T20:23:34.770Z,101802.84
2023-04-30T20:28:38.856Z,101799.56
2023-04-30T20:33:43.422Z,101788.53
2023-04-30T20:38:49.150Z,101787.47
2023-04-30T20:43:54.114Z,101786.09
2023-04-30T20:49:03.864Z,101783.50
2023-04-30T20:54:09.809Z,101783.66
2023-04-30T20:59:13.983Z,101785.56
2023-04-30T21:04:18.061Z,101784.50
2023-04-30T21:09:23.509Z,101784.66
2023-04-30T21:14:27.487Z,101777.38
2023-04-30T21:19:33.634Z,101781.25
2023-04-30T21:24:39.863Z,101766.09
2023-04-30T21:29:44.591Z,101767.63
2023-04-30T21:34:48.610Z,101756.75
2023-04-30T21:39:55.762Z,101763.38
2023-04-30T21:44:59.977Z,101766.94
2023-04-30T21:50:04.141Z,101760.59
2023-04-30T21:55:11.104Z,101756.09
2023-04-30T22:00:16.966Z,101754.56
2023-04-30T22:05:26.812Z,101751.84
2023-04-30T22:10:32.723Z,101741.50
2023-04-30T22:15:47.224Z,101734.91
2023-04-30T22:20:52.627Z,101725.34
2023-04-30T22:25:58.091Z,101722.06
2023-04-30T22:31:02.505Z,101726.47
2023-04-30T22:36:07.901Z,101724.84
2023-04-30T22:41:13.610Z,101727.44
2023-04-30T22:46:17.727Z,101717.97
2023-04-30T22:51:22.045Z,101718.47
2023-04-30T22:56:27.445Z,101718.47
2023-04-30T23:01:31.600Z,101714.63
2023-04-30T23:06:35.689Z,101711.34
2023-04-30T23:11:41.110Z,101708.31
2023-04-30T23:16:45.183Z,101703.34
2023-04-30T23:21:49.229Z,101706.94
2023-04-30T23:26:55.319Z,101703.34
2023-04-30T23:31:59.530Z,101694.81
2023-04-30T23:37:03.556Z,101686.72
2023-04-30T23:42:09.002Z,101679.97
2023-04-30T23:47:12.948Z,101671.69
2023-04-30T23:52:16.901Z,101673.75
2023-04-30T23:57:22.225Z,101673.50
